Time;durP1;ratioP1;P1;durP2;ratioP2;P2;SDS_P1;SDS_P2;PMS_P1;PMS_P2;Temp;Humidity;BMP_temperature;BMP_pressure;BME280_temperature;BME280_humidity;BME280_pressure;Samples;Min_cycle;Max_cycle;Signal;HPM_P1;HPM_P2
2022/09/12 00:01:40;;;;;;;21.57;11.37;;;;;;;-145.69;100.00;71820.28;5076189;28;20199;-75
2022/09/12 00:04:07;;;;;;;20.50;11.47;;;;;;;-145.69;100.00;71812.31;5076216;28;20195;-75
2022/09/12 00:06:35;;;;;;;20.13;10.20;;;;;;;-145.69;100.00;71816.31;5076153;28;20210;-75
2022/09/12 00:09:06;;;;;;;29.30;11.20;;;;;;;-145.69;100.00;71808.34;5075550;28;20203;-75
2022/09/12 00:11:35;;;;;;;18.83;11.00;;;;;;;-145.69;100.00;71800.38;5076095;28;20206;-75
2022/09/12 00:14:02;;;;;;;21.23;10.27;;;;;;;-145.69;100.00;71804.38;5076111;28;20214;-75
2022/09/12 00:16:31;;;;;;;19.60;9.87;;;;;;;-145.69;100.00;71816.31;5076356;28;20238;-75
2022/09/12 00:18:57;;;;;;;21.60;9.27;;;;;;;-145.69;100.00;71824.25;5076114;28;20202;-76
2022/09/12 00:21:24;;;;;;;17.23;9.93;;;;;;;-145.69;100.00;71832.22;5075619;28;20608;-75
2022/09/12 00:23:51;;;;;;;18.53;9.73;;;;;;;-145.69;100.00;71836.22;5075761;28;20195;-75
2022/09/12 00:26:21;;;;;;;15.50;9.20;;;;;;;-145.69;100.00;71834.22;5075911;28;20245;-75
2022/09/12 00:28:48;;;;;;;19.27;9.50;;;;;;;-145.69;100.00;71834.22;5075613;28;20209;-74
2022/09/12 00:31:16;;;;;;;21.40;10.80;;;;;;;-145.69;100.00;71816.31;5075449;28;20202;-75
2022/09/12 00:33:46;;;;;;;22.93;9.93;;;;;;;-145.69;100.00;71820.28;5075416;28;20558;-75
2022/09/12 00:36:14;;;;;;;21.43;11.03;;;;;;;-145.69;100.00;71830.25;5075284;28;20218;-75
2022/09/12 00:38:42;;;;;;;19.37;10.00;;;;;;;-145.69;100.00;71838.19;5075820;28;20195;-75
2022/09/12 00:41:16;;;;;;;21.73;10.27;;;;;;;-145.69;100.00;71832.22;5075456;28;20205;-75
2022/09/12 00:43:45;;;;;;;22.23;10.60;;;;;;;-145.69;100.00;71834.22;5075580;28;20202;-75
2022/09/12 00:46:28;;;;;;;16.67;10.10;;;;;;;-145.69;100.00;71844.16;5075368;28;20210;-75
2022/09/12 00:48:59;;;;;;;24.53;10.17;;;;;;;-145.69;100.00;71842.19;5075432;28;20661;-75
2022/09/12 00:51:26;;;;;;;22.33;10.73;;;;;;;-145.69;100.00;71826.25;5073885;28;20680;-75
2022/09/12 00:53:55;;;;;;;23.77;11.10;;;;;;;-145.69;100.00;71824.25;5075459;28;20202;-76
2022/09/12 00:56:23;;;;;;;22.83;11.63;;;;;;;-145.69;100.00;71810.34;5074870;28;20227;-75
2022/09/12 00:58:55;;;;;;;27.53;11.63;;;;;;;-145.69;100.00;71820.28;5074762;28;20205;-75
2022/09/12 01:01:21;;;;;;;24.97;10.43;;;;;;;-145.69;100.00;71814.31;5075328;28;20611;-75
2022/09/12 01:03:48;;;;;;;18.07;9.13;;;;;;;-145.69;100.00;71840.19;5070175;28;20203;-75
2022/09/12 01:06:18;;;;;;;22.40;10.83;;;;;;;-145.69;100.00;71836.22;5064736;28;20225;-75
2022/09/12 01:08:47;;;;;;;21.80;9.40;;;;;;;-145.69;100.00;71852.13;5075056;28;20596;-75
2022/09/12 01:11:15;;;;;;;23.77;10.57;;;;;;;-145.69;100.00;71832.22;5074522;28;20215;-74
2022/09/12 01:13:44;;;;;;;20.43;10.60;;;;;;;-145.69;100.00;71830.25;5070928;28;20203;-75
2022/09/12 01:16:12;;;;;;;19.03;10.27;;;;;;;-145.69;100.00;71820.28;5064301;28;20279;-74
2022/09/12 01:18:48;;;;;;;22.80;11.13;;;;;;;-145.69;100.00;71816.31;5074935;28;20209;-74
2022/09/12 01:21:23;;;;;;;18.40;9.97;;;;;;;-145.69;100.00;71812.31;5074924;28;20209;-74
2022/09/12 01:24:22;;;;;;;20.90;9.97;;;;;;;-145.69;100.00;71812.31;5074683;28;20567;-75
2022/09/12 01:27:08;;;;;;;19.47;10.17;;;;;;;-145.69;100.00;71826.25;5074492;28;20209;-75
2022/09/12 01:30:06;;;;;;;24.70;10.47;;;;;;;-145.69;100.00;71830.25;5054649;28;20199;-75
2022/09/12 01:32:45;;;;;;;20.53;9.90;;;;;;;-145.69;100.00;71828.25;5033316;28;20204;-76
2022/09/12 01:35:23;;;;;;;26.23;10.27;;;;;;;-145.69;100.00;71822.28;5054713;28;20206;-74
2022/09/12 01:38:01;;;;;;;26.77;11.50;;;;;;;-145.69;100.00;71818.31;5054533;28;20231;-75
2022/09/12 01:40:35;;;;;;;19.70;10.07;;;;;;;-145.69;100.00;71816.31;5054335;28;20547;-74
2022/09/12 01:43:09;;;;;;;17.77;9.50;;;;;;;-145.69;100.00;71834.22;5054667;28;20203;-75
2022/09/12 01:45:43;;;;;;;18.57;9.07;;;;;;;-145.69;100.00;71844.16;5054486;28;20203;-74
2022/09/12 01:48:16;;;;;;;17.63;8.57;;;;;;;-145.69;100.00;71864.06;5054408;28;20211;-76
2022/09/12 01:50:50;;;;;;;15.23;8.07;;;;;;;-145.69;100.00;71870.03;5054210;28;20227;-76
2022/09/12 01:53:22;;;;;;;26.53;9.73;;;;;;;-145.69;100.00;71848.16;5054259;28;20539;-76
2022/09/12 01:55:53;;;;;;;23.50;10.60;;;;;;;-145.69;100.00;71832.22;5054224;28;20199;-75
2022/09/12 01:58:23;;;;;;;22.67;11.43;;;;;;;-145.69;100.00;71830.25;5067859;28;20222;-75
2022/09/12 02:00:55;;;;;;;23.63;10.67;;;;;;;-145.69;100.00;71826.25;5073728;28;20196;-75
2022/09/12 02:03:29;;;;;;;24.03;10.37;;;;;;;-145.69;100.00;71820.28;5073515;28;20206;-75
2022/09/12 02:06:00;;;;;;;21.03;10.83;;;;;;;-145.69;100.00;71810.34;5073920;28;20557;-75
2022/09/12 02:08:30;;;;;;;24.00;10.30;;;;;;;-145.69;100.00;71810.34;5073814;28;20206;-76
2022/09/12 02:11:02;;;;;;;32.03;11.03;;;;;;;-145.69;100.00;71808.34;5073845;28;20199;-75
2022/09/12 02:13:35;;;;;;;27.73;11.07;;;;;;;-145.69;100.00;71816.31;5073804;28;20202;-75
2022/09/12 02:16:08;;;;;;;23.77;10.43;;;;;;;-145.69;100.00;71810.34;5073818;28;20199;-76
2022/09/12 02:18:40;;;;;;;24.80;10.40;;;;;;;-145.69;100.00;71804.38;5073586;28;20558;-76
2022/09/12 02:21:08;;;;;;;29.05;13.20;;;;;;;-145.69;100.00;71802.38;5072961;28;20533;-76
2022/09/12 02:23:39;;;;;;;24.03;10.43;;;;;;;-145.69;100.00;71812.31;5073387;28;20203;-76
2022/09/12 02:26:11;;;;;;;21.60;8.90;;;;;;;-145.69;100.00;71816.31;5053527;28;20207;-76
2022/09/12 02:28:42;;;;;;;19.83;9.67;;;;;;;-145.69;100.00;71806.34;5053747;28;20203;-76
2022/09/12 02:31:15;;;;;;;15.50;8.20;;;;;;;-145.69;100.00;71824.25;5053529;28;20590;-76
2022/09/12 02:33:49;;;;;;;21.37;8.77;;;;;;;-145.69;100.00;71834.22;5053641;28;20204;-76
2022/09/12 02:36:26;;;;;;;17.53;8.63;;;;;;;-145.69;100.00;71854.13;5053436;28;20625;-76
2022/09/12 02:38:55;;;;;;;18.63;8.73;;;;;;;-145.69;100.00;71848.16;5053664;28;20192;-76
2022/09/12 02:41:22;;;;;;;24.43;10.33;;;;;;;-145.69;100.00;71858.09;5053529;28;20203;-76
2022/09/12 02:43:51;;;;;;;19.93;9.43;;;;;;;-145.69;100.00;71854.13;5053540;28;20215;-76
2022/09/12 02:46:22;;;;;;;23.67;9.30;;;;;;;-145.69;100.00;71852.13;5053398;28;20562;-76
2022/09/12 02:48:50;;;;;;;22.20;9.50;;;;;;;-145.69;100.00;71844.16;5053249;28;20298;-76
2022/09/12 02:51:17;;;;;;;26.73;9.60;;;;;;;-145.69;100.00;71836.22;5053057;28;20277;-76
2022/09/12 02:53:44;;;;;;;22.70;9.43;;;;;;;-145.69;100.00;71834.22;5059945;28;20191;-76
2022/09/12 02:56:24;;;;;;;17.70;8.40;;;;;;;-145.69;100.00;71846.16;5073227;28;20209;-76
2022/09/12 02:58:51;;;;;;;29.30;14.00;;;;;;;-145.69;100.00;71832.22;5072177;28;20468;-76
2022/09/12 03:01:30;;;;;;;22.30;10.63;;;;;;;-145.69;100.00;71832.22;5072943;28;20668;-76
2022/09/12 03:04:17;;;;;;;24.53;9.43;;;;;;;-145.69;100.00;71824.25;5056599;28;20233;-76
2022/09/12 03:06:54;;;;;;;19.87;8.30;;;;;;;-145.69;100.00;71806.34;5053247;28;20623;-76
2022/09/12 03:09:34;;;;;;;19.87;9.57;;;;;;;-145.69;100.00;71798.41;5052711;28;20584;-76
2022/09/12 03:12:15;;;;;;;29.70;10.80;;;;;;;-145.69;100.00;71784.47;5052813;28;20649;-76
2022/09/12 03:15:00;;;;;;;21.93;8.73;;;;;;;-145.69;100.00;71802.38;5052369;28;20203;-75
2022/09/12 03:17:35;;;;;;;17.67;8.77;;;;;;;-145.69;100.00;71816.31;5060855;28;20218;-75
2022/09/12 03:20:15;;;;;;;20.00;9.03;;;;;;;-145.69;100.00;71820.28;5072920;28;20565;-76
2022/09/12 03:22:54;;;;;;;19.23;7.90;;;;;;;-145.69;100.00;71854.13;5072642;28;20588;-76
2022/09/12 03:25:27;;;;;;;17.47;8.00;;;;;;;-145.69;100.00;71850.13;5072732;28;20230;-75
2022/09/12 03:27:58;;;;;;;27.73;9.60;;;;;;;-145.69;100.00;71828.25;5072924;28;20203;-76
2022/09/12 03:30:27;;;;;;;24.03;10.07;;;;;;;-145.69;100.00;71810.34;5072780;28;20649;-75
2022/09/12 03:32:54;;;;;;;24.60;10.10;;;;;;;-145.69;100.00;71790.44;5072669;28;20253;-75
2022/09/12 03:35:25;;;;;;;25.17;10.55;;;;;;;-145.69;100.00;71800.38;5072626;28;20446;-75
2022/09/12 03:37:52;;;;;;;22.10;9.57;;;;;;;-145.69;100.00;71802.38;5072949;28;20229;-75
2022/09/12 03:40:19;;;;;;;22.43;10.17;;;;;;;-145.69;100.00;71808.34;5072703;28;20233;-75
2022/09/12 03:42:48;;;;;;;28.87;11.00;;;;;;;-145.69;100.00;71808.34;5072649;28;20237;-75
2022/09/12 03:45:15;;;;;;;23.47;9.00;;;;;;;-145.69;100.00;71820.28;5072570;28;20222;-77
2022/09/12 03:47:41;;;;;;;21.33;9.50;;;;;;;-145.69;100.00;71822.28;5072419;28;20187;-76
2022/09/12 03:50:08;;;;;;;25.03;10.30;;;;;;;-145.69;100.00;71800.38;5072552;28;20241;-75
2022/09/12 03:52:36;;;;;;;24.37;9.53;;;;;;;-145.69;100.00;71820.28;5072618;28;20206;-77
2022/09/12 03:55:03;;;;;;;20.97;8.53;;;;;;;-145.69;100.00;71848.16;5072491;28;20211;-77
2022/09/12 03:57:30;;;;;;;21.03;8.57;;;;;;;-145.69;100.00;71838.19;5072314;28;20230;-75
2022/09/12 03:59:56;;;;;;;23.03;8.43;;;;;;;-145.69;100.00;71844.16;5072487;28;20214;-77
2022/09/12 04:02:23;;;;;;;22.20;9.00;;;;;;;-145.69;100.00;71854.13;5072518;28;20205;-76
2022/09/12 04:04:50;;;;;;;14.37;7.77;;;;;;;-145.69;100.00;71883.97;5072647;28;20207;-77
2022/09/12 04:07:17;;;;;;;14.03;6.53;;;;;;;-145.69;100.00;71889.94;5072434;28;20222;-77
2022/09/12 04:09:45;;;;;;;12.83;7.00;;;;;;;-145.69;100.00;71905.88;5072486;28;20294;-76
2022/09/12 04:12:12;;;;;;;20.33;7.20;;;;;;;-145.69;100.00;71907.84;5072373;28;20205;-76
2022/09/12 04:14:39;;;;;;;16.60;8.07;;;;;;;-145.69;100.00;71862.06;5072228;28;20210;-76
2022/09/12 04:17:05;;;;;;;27.10;9.60;;;;;;;-145.69;100.00;71860.09;5072165;28;20191;-76
2022/09/12 04:19:34;;;;;;;27.63;9.90;;;;;;;-145.69;100.00;71844.16;5072413;28;20202;-76
2022/09/12 04:22:00;;;;;;;17.53;8.67;;;;;;;-145.69;100.00;71852.13;5072161;28;20674;-76
2022/09/12 04:24:27;;;;;;;19.40;8.93;;;;;;;-145.69;100.00;71864.06;5072139;28;20737;-76
2022/09/12 04:26:55;;;;;;;21.53;9.60;;;;;;;-145.69;100.00;71858.09;5074239;28;20600;-75
2022/09/12 04:29:21;;;;;;;23.67;9.13;;;;;;;-145.69;100.00;71870.03;5076008;28;20205;-75
2022/09/12 04:31:48;;;;;;;17.07;8.83;;;;;;;-145.69;100.00;71866.06;5075924;28;20195;-76
2022/09/12 04:34:15;;;;;;;22.07;9.00;;;;;;;-145.69;100.00;71856.09;5075857;28;20233;-76
2022/09/12 04:36:42;;;;;;;26.83;10.27;;;;;;;-145.69;100.00;71832.22;5075843;28;20245;-77
2022/09/12 04:39:08;;;;;;;25.53;11.23;;;;;;;-145.69;100.00;71812.31;5075665;28;20250;-75
2022/09/12 04:41:37;;;;;;;30.30;11.70;;;;;;;-145.69;100.00;71800.38;5075401;28;20657;-74
2022/09/12 04:44:07;;;;;;;25.23;11.13;;;;;;;-145.69;100.00;71804.38;5075706;28;20211;-78
2022/09/12 04:46:35;;;;;;;25.33;12.00;;;;;;;-145.69;100.00;71808.34;5074970;28;20442;-76
2022/09/12 04:49:02;;;;;;;22.10;9.90;;;;;;;-145.69;100.00;71824.25;5075363;28;20199;-76
2022/09/12 04:51:30;;;;;;;17.17;8.83;;;;;;;-145.69;100.00;71834.22;5075128;28;20276;-76
2022/09/12 04:53:58;;;;;;;16.57;8.07;;;;;;;-145.69;100.00;71854.13;5075313;28;20203;-76
2022/09/12 04:56:25;;;;;;;25.00;11.75;;;;;;;-145.69;100.00;71840.19;5074980;28;20813;-76
2022/09/12 04:58:52;;;;;;;20.93;9.70;;;;;;;-145.69;100.00;71830.25;5075310;28;20631;-76
2022/09/12 05:01:21;;;;;;;20.27;10.57;;;;;;;-145.69;100.00;71830.25;5075170;28;20198;-76
2022/09/12 05:03:50;;;;;;;14.57;7.70;;;;;;;-145.69;100.00;71858.09;5070862;28;20194;-76
2022/09/12 05:06:18;;;;;;;17.70;8.13;;;;;;;-145.69;100.00;71874.03;5055168;28;20297;-76
2022/09/12 05:08:45;;;;;;;11.93;7.13;;;;;;;-145.69;100.00;71901.88;5054978;28;20199;-76
2022/09/12 05:11:14;;;;;;;13.93;7.17;;;;;;;-145.69;100.00;71911.84;5065358;28;20222;-76
2022/09/12 05:13:41;;;;;;;17.03;8.30;;;;;;;-145.69;100.00;71899.88;5075206;28;20202;-75
2022/09/12 05:16:09;;;;;;;18.77;7.90;;;;;;;-145.69;100.00;71907.84;5074948;28;20226;-75
2022/09/12 05:18:37;;;;;;;16.77;8.63;;;;;;;-145.69;100.00;71915.81;5074687;28;20231;-74
2022/09/12 05:21:06;;;;;;;20.20;8.60;;;;;;;-145.69;100.00;71905.88;5075241;28;20589;-75
2022/09/12 05:23:32;;;;;;;19.10;8.93;;;;;;;-145.69;100.00;71883.97;5075389;28;20202;-75
2022/09/12 05:25:59;;;;;;;20.90;10.07;;;;;;;-145.69;100.00;71876.00;5075139;28;20596;-75
2022/09/12 05:28:31;;;;;;;23.07;9.73;;;;;;;-145.69;100.00;71880.00;5074682;28;20657;-76
2022/09/12 05:31:01;;;;;;;17.73;8.70;;;;;;;-145.69;100.00;71880.00;5074727;28;20215;-75
2022/09/12 05:33:28;;;;;;;19.53;9.27;;;;;;;-145.69;100.00;71860.09;5074555;28;20294;-75
2022/09/12 05:35:56;;;;;;;17.90;9.10;;;;;;;-145.69;100.00;71870.03;5074540;28;20309;-75
2022/09/12 05:38:23;;;;;;;18.88;11.30;;;;;;;-145.69;100.00;71874.03;5072505;28;20536;-75
2022/09/12 05:40:50;;;;;;;14.47;8.90;;;;;;;-145.69;100.00;71878.00;5074405;28;20248;-75
2022/09/12 05:43:16;;;;;;;17.10;8.90;;;;;;;-145.69;100.00;71876.00;5074565;28;20290;-75
2022/09/12 05:45:43;;;;;;;19.40;7.77;;;;;;;-145.69;100.00;71881.97;5074282;28;20668;-75
2022/09/12 05:48:09;;;;;;;17.57;8.03;;;;;;;-145.69;100.00;71878.00;5074289;28;20202;-76
2022/09/12 05:50:36;;;;;;;16.80;8.80;;;;;;;-145.69;100.00;71872.03;5073971;28;20235;-75
2022/09/12 05:53:04;;;;;;;21.83;9.73;;;;;;;-145.69;100.00;71852.13;5074304;28;20285;-75
2022/09/12 05:55:32;;;;;;;17.47;8.83;;;;;;;-145.69;100.00;71840.19;5074252;28;20268;-75
2022/09/12 05:57:58;;;;;;;22.50;10.43;;;;;;;-145.69;100.00;71806.34;5074019;28;20218;-75
2022/09/12 06:00:24;;;;;;;21.50;9.40;;;;;;;-145.69;100.00;71800.38;5074035;28;20592;-77
2022/09/12 06:02:52;;;;;;;19.43;9.13;;;;;;;-145.69;100.00;71786.47;5073972;28;20252;-77
2022/09/12 06:05:19;;;;;;;15.33;8.57;;;;;;;-145.69;100.00;71788.44;5074084;28;20293;-74
2022/09/12 06:07:46;;;;;;;18.37;9.10;;;;;;;-145.69;100.00;71782.47;5073990;28;20207;-74
2022/09/12 06:10:14;;;;;;;16.27;8.37;;;;;;;-145.69;100.00;71772.53;5073708;28;20206;-75
2022/09/12 06:12:42;;;;;;;17.53;8.07;;;;;;;-145.69;100.00;71764.56;5073705;28;20205;-77
2022/09/12 06:15:09;;;;;;;17.77;9.03;;;;;;;-145.69;100.00;71744.66;5073805;28;20487;-77
2022/09/12 06:17:36;;;;;;;18.80;8.07;;;;;;;-145.69;100.00;71734.72;5073498;28;20708;-76
2022/09/12 06:20:03;;;;;;;17.50;8.37;;;;;;;-145.69;100.00;71730.72;5073846;28;20565;-75
2022/09/12 06:22:30;;;;;;;16.07;8.63;;;;;;;-145.69;100.00;71714.81;5073754;28;20260;-75
2022/09/12 06:24:57;;;;;;;13.13;7.43;;;;;;;-145.69;100.00;71708.84;5073623;28;20289;-75
2022/09/12 06:27:24;;;;;;;14.73;8.43;;;;;;;-145.69;100.00;71704.88;5073490;28;20194;-75
2022/09/12 06:29:51;;;;;;;10.67;6.70;;;;;;;-145.69;100.00;71706.84;5073416;28;20203;-76
2022/09/12 06:32:17;;;;;;;15.43;7.90;;;;;;;-145.69;100.00;71708.84;5073490;28;20289;-76
2022/09/12 06:34:47;;;;;;;17.20;8.27;;;;;;;-145.69;100.00;71692.94;5073589;28;20221;-76
2022/09/12 06:37:14;;;;;;;10.90;7.10;;;;;;;-145.69;100.00;71690.94;5073631;28;20198;-75
2022/09/12 06:39:40;;;;;;;12.20;7.30;;;;;;;-145.69;100.00;71677.00;5073278;28;20230;-76
2022/09/12 06:42:06;;;;;;;12.80;7.13;;;;;;;-145.69;100.00;71669.03;5073100;28;20195;-76
2022/09/12 06:44:34;;;;;;;14.87;7.83;;;;;;;-145.69;100.00;71653.13;5073115;28;20198;-76
2022/09/12 06:47:01;;;;;;;15.23;7.57;;;;;;;-145.69;100.00;71643.19;5073097;28;20727;-76
2022/09/12 06:49:27;;;;;;;14.23;7.83;;;;;;;-145.69;100.00;71629.25;5073435;28;20210;-76
2022/09/12 06:51:54;;;;;;;12.87;7.40;;;;;;;-145.69;100.00;71609.34;5073557;28;20258;-77
2022/09/12 06:54:20;;;;;;;11.02;7.68;;;;;;;-145.69;100.00;71593.44;5073160;28;20890;-76
2022/09/12 06:56:47;;;;;;;14.57;7.40;;;;;;;-145.69;100.00;71577.50;5073668;28;20205;-76
2022/09/12 06:59:13;;;;;;;12.33;8.27;;;;;;;-145.69;100.00;71533.72;5072813;28;20237;-76
2022/09/12 07:01:41;;;;;;;13.50;6.97;;;;;;;-145.69;100.00;71527.75;5073205;28;20206;-76
2022/09/12 07:04:07;;;;;;;11.37;6.70;;;;;;;-145.69;100.00;71505.88;5073103;28;20205;-76
2022/09/12 07:06:37;;;;;;;16.08;6.95;;;;;;;-145.69;100.00;71487.97;5073495;28;20276;-76
2022/09/12 07:09:05;;;;;;;9.95;6.53;;;;;;;-145.69;100.00;71470.06;5073057;28;20210;-76
2022/09/12 07:11:33;;;;;;;9.60;6.75;;;;;;;-145.69;100.00;71458.09;5070876;28;20195;-76
2022/09/12 07:14:01;;;;;;;9.40;5.40;;;;;;;-145.69;100.00;71444.19;5073084;28;20209;-76
2022/09/12 07:16:28;;;;;;;7.53;5.37;;;;;;;-145.69;100.00;71424.28;5073244;28;20194;-76
2022/09/12 07:18:58;;;;;;;6.30;4.90;;;;;;;-145.69;100.00;71414.34;5072745;28;20749;-75
2022/09/12 07:21:24;;;;;;;6.63;4.07;;;;;;;-145.69;100.00;71398.41;5072908;28;20206;-77
2022/09/12 07:23:51;;;;;;;6.90;4.63;;;;;;;-145.69;100.00;71360.59;5072815;28;20660;-77
2022/09/12 07:26:18;;;;;;;9.07;4.68;;;;;;;-145.69;100.00;71352.66;5072898;28;20224;-76
2022/09/12 07:28:45;;;;;;;6.65;3.90;;;;;;;-145.69;100.00;71332.75;5072999;28;20203;-76
2022/09/12 07:31:13;;;;;;;6.18;4.78;;;;;;;-145.69;100.00;71310.84;5072898;28;20199;-75
2022/09/12 07:33:40;;;;;;;6.93;4.85;;;;;;;-145.69;100.00;71302.91;5072687;28;20237;-76
2022/09/12 07:36:11;;;;;;;5.70;3.90;;;;;;;-145.69;100.00;71290.97;5072849;28;20210;-76
2022/09/12 07:38:38;;;;;;;5.00;3.45;;;;;;;-145.69;100.00;71273.06;5072534;28;20585;-76
2022/09/12 07:41:10;;;;;;;5.18;3.33;;;;;;;-145.69;100.00;71253.16;5072669;28;20199;-77
2022/09/12 07:43:37;;;;;;;5.47;3.05;;;;;;;-145.69;100.00;71223.31;5072634;28;20198;-76
2022/09/12 07:46:03;;;;;;;4.03;2.78;;;;;;;-145.69;100.00;71199.44;5072561;28;20203;-76
2022/09/12 07:48:30;;;;;;;2.50;1.88;;;;;;;-145.69;100.00;71175.56;5072477;28;20249;-76
2022/09/12 07:51:00;;;;;;;2.75;2.15;;;;;;;-145.69;100.00;71131.78;5072594;28;20242;-75
2022/09/12 07:53:31;;;;;;;2.25;1.90;;;;;;;-145.69;100.00;71115.88;5072472;28;20203;-77
2022/09/12 07:55:58;;;;;;;1.80;1.70;;;;;;;-145.69;100.00;71115.88;5072602;28;20245;-76
2022/09/12 07:58:25;;;;;;;3.10;1.90;;;;;;;-145.69;100.00;71097.97;5072410;28;20688;-76
2022/09/12 08:00:52;;;;;;;2.45;2.10;;;;;;;-145.69;100.00;71086.03;5073099;28;20202;-76
2022/09/12 08:03:18;;;;;;;11.52;3.20;;;;;;;-145.69;100.00;71056.16;5076283;28;20202;-75
2022/09/12 08:05:44;;;;;;;2.03;1.45;;;;;;;-145.69;100.00;71020.34;5075869;28;20251;-75
2022/09/12 08:08:11;;;;;;;3.13;1.60;;;;;;;-145.69;94.00;71018.38;5076176;28;20326;-75
2022/09/12 08:10:39;;;;;;;2.08;1.65;;;;;;;-145.69;100.00;71006.44;5076202;28;20230;-75
2022/09/12 08:13:06;;;;;;;1.55;1.40;;;;;;;-145.69;93.50;70984.53;5073747;28;20268;-74
2022/09/12 08:15:34;;;;;;;3.22;1.50;;;;;;;-145.69;91.69;70972.59;5074418;28;20863;-75
2022/09/12 08:18:01;;;;;;;1.63;1.40;;;;;;;-145.69;87.98;70968.63;5075290;28;20195;-76
2022/09/12 08:20:27;;;;;;;1.50;1.20;;;;;;;-145.69;89.43;70960.66;5075458;28;20230;-76
2022/09/12 08:22:54;;;;;;;1.63;1.30;;;;;;;-145.69;89.08;70950.72;5075936;28;20205;-76
2022/09/12 08:25:20;;;;;;;1.35;1.25;;;;;;;-145.69;95.12;70944.75;5075867;28;20211;-75
2022/09/12 08:27:48;;;;;;;5.90;1.52;;;;;;;-145.69;89.48;70924.84;5075436;28;20565;-74
2022/09/12 08:30:15;;;;;;;1.92;1.48;;;;;;;-145.69;91.46;70916.91;5075766;28;20210;-74
2022/09/12 08:32:41;;;;;;;2.45;1.35;;;;;;;-145.69;88.87;70914.91;5075535;28;20596;-75
2022/09/12 08:35:08;;;;;;;1.88;1.25;;;;;;;-145.69;83.73;70897.00;5075629;28;20203;-75
2022/09/12 08:37:34;;;;;;;3.13;1.30;;;;;;;-145.69;89.85;70881.09;5075456;28;20681;-75
2022/09/12 08:40:01;;;;;;;3.20;1.33;;;;;;;-145.69;87.32;70887.06;5075735;28;20592;-75
2022/09/12 08:42:45;;;;;;;2.80;1.20;;;;;;;-145.69;95.49;70877.09;5075561;28;20207;-74
2022/09/12 08:45:20;;;;;;;1.25;1.15;;;;;;;-145.69;84.35;70867.16;5075522;28;20260;-77
2022/09/12 08:47:47;;;;;;;1.85;0.98;;;;;;;-145.69;82.66;70875.13;5075674;28;20194;-76
2022/09/12 08:50:17;;;;;;;2.38;1.50;;;;;;;-145.69;85.38;70867.16;5074932;28;20226;-76
2022/09/12 08:52:52;;;;;;;4.55;1.30;;;;;;;-145.69;90.41;70849.25;5075451;28;20631;-75
2022/09/12 08:55:26;;;;;;;2.20;1.20;;;;;;;-145.69;84.04;70853.22;5075177;28;20205;-75
2022/09/12 08:57:53;;;;;;;7.65;1.40;;;;;;;-145.69;84.83;70849.25;5075254;28;20289;-75
2022/09/12 09:00:21;;;;;;;2.00;1.20;;;;;;;-145.69;83.44;70821.41;5075357;28;20235;-74
2022/09/12 09:03:08;;;;;;;1.30;1.00;;;;;;;-145.69;75.52;70831.34;5074892;28;20187;-75
2022/09/12 09:05:49;;;;;;;1.75;0.90;;;;;;;-145.69;77.13;70829.34;5075107;28;20190;-75
2022/09/12 09:08:30;;;;;;;1.08;0.90;;;;;;;-145.69;75.51;70817.41;5074752;28;20195;-75
2022/09/12 09:11:04;;;;;;;1.10;1.00;;;;;;;-145.69;75.38;70817.41;5075338;28;20198;-76
2022/09/12 09:16:32;;;;;;;1.65;1.17;;;;;;;-145.69;77.66;70803.50;5073219;28;20198;-76
2022/09/12 09:19:02;;;;;;;1.88;0.93;;;;;;;-145.69;82.60;70789.56;5063817;28;20689;-75
2022/09/12 09:21:35;;;;;;;1.02;0.90;;;;;;;-145.69;72.04;70785.59;5074989;28;20199;-74
2022/09/12 09:24:05;;;;;;;1.10;1.00;;;;;;;-145.69;75.18;70785.59;5074912;28;20198;-75
2022/09/12 09:26:41;;;;;;;1.50;0.90;;;;;;;-145.69;79.86;70783.59;5074720;28;20195;-75
2022/09/12 09:29:16;;;;;;;1.10;0.80;;;;;;;-145.69;74.73;70789.56;5074760;28;20202;-74
2022/09/12 09:31:48;;;;;;;2.05;1.00;;;;;;;-145.69;74.43;70783.59;5074470;28;20201;-76
2022/09/12 09:34:19;;;;;;;0.88;0.88;;;;;;;-145.69;79.26;70769.66;5074669;28;20286;-76
2022/09/12 09:36:50;;;;;;;1.08;0.60;;;;;;;-145.69;75.12;70769.66;5073592;28;20446;-76
2022/09/12 09:39:38;;;;;;;2.85;0.85;;;;;;;-145.69;76.80;70755.75;5074439;28;20230;-76
2022/09/12 09:42:16;;;;;;;0.98;0.70;;;;;;;-145.69;73.28;70749.78;5074539;28;20210;-76
2022/09/12 09:44:45;;;;;;;0.95;0.60;;;;;;;-145.69;72.81;70737.84;5074262;28;20199;-76
2022/09/12 09:47:13;;;;;;;1.27;0.70;;;;;;;-145.69;78.23;70719.94;5074345;28;20206;-75
2022/09/12 09:49:39;;;;;;;0.82;0.82;;;;;;;-145.69;76.78;70727.88;5073476;28;20199;-75
2022/09/12 09:52:08;;;;;;;1.67;0.63;;;;;;;-145.69;68.14;70715.94;5073924;28;20279;-75
2022/09/12 09:54:39;;;;;;;1.23;0.60;;;;;;;-145.69;70.61;70711.97;5074204;28;20198;-75
2022/09/12 09:57:38;;;;;;;1.33;0.82;;;;;;;-145.69;68.12;70704.00;5074225;28;20203;-75
2022/09/12 10:00:21;;;;;;;0.63;0.60;;;;;;;-145.69;64.39;70688.09;5073985;28;20226;-75
2022/09/12 10:03:01;;;;;;;0.80;0.55;;;;;;;-145.69;69.75;70682.13;5072563;28;20214;-75
2022/09/12 10:05:28;;;;;;;0.57;0.57;;;;;;;-145.69;76.74;70668.19;5073983;28;20198;-75
2022/09/12 10:07:55;;;;;;;3.10;0.60;;;;;;;-145.69;70.98;70652.28;5074067;28;20274;-76
2022/09/12 10:10:22;;;;;;;0.90;0.60;;;;;;;-145.69;66.53;70658.25;5073839;28;20205;-75
2022/09/12 10:12:49;;;;;;;1.05;0.80;;;;;;;-145.69;70.57;70658.25;5073790;28;20256;-76
2022/09/12 10:15:18;;;;;;;0.60;0.60;;;;;;;-145.69;66.78;70638.34;5074004;28;20562;-75
2022/09/12 10:17:46;;;;;;;0.68;0.68;;;;;;;-145.69;61.96;70618.47;5073602;28;20195;-75
2022/09/12 10:20:33;;;;;;;1.40;0.70;;;;;;;-145.69;64.07;70618.47;5073538;28;20222;-75
2022/09/12 10:23:02;;;;;;;1.00;0.60;;;;;;;-145.69;63.58;70614.47;5073732;28;20199;-75
2022/09/12 10:25:28;;;;;;;1.13;0.50;;;;;;;-145.69;59.44;70608.53;5073239;28;20679;-77
2022/09/12 10:27:58;;;;;;;1.83;0.82;;;;;;;-145.69;56.77;70582.66;5073624;28;20225;-77
2022/09/12 10:30:27;;;;;;;0.50;0.50;;;;;;;-145.69;57.30;70582.66;5073410;28;20662;-76
2022/09/12 10:32:56;;;;;;;1.83;0.50;;;;;;;-145.69;54.07;70590.63;5073294;28;20264;-75
2022/09/12 10:35:25;;;;;;;0.80;0.40;;;;;;;-145.69;52.13;70590.63;5073343;28;20667;-77
2022/09/12 10:37:56;;;;;;;1.02;0.60;;;;;;;-145.69;53.78;70604.53;5072695;28;20198;-75
2022/09/12 10:40:26;;;;;;;0.60;0.60;;;;;;;-145.69;58.97;70588.63;5073501;28;20258;-76
2022/09/12 10:42:54;;;;;;;0.82;0.70;;;;;;;-145.69;59.37;70564.75;5073261;28;20209;-76
2022/09/12 10:45:24;;;;;;;1.08;0.40;;;;;;;-145.69;57.20;70538.88;5073396;28;20577;-75
2022/09/12 10:47:52;;;;;;;1.05;0.52;;;;;;;-145.69;50.41;70552.81;5073078;28;20301;-75
2022/09/12 10:50:39;;;;;;;0.60;0.40;;;;;;;-145.69;49.15;70542.88;5073142;28;20230;-75
2022/09/12 10:53:20;;;;;;;0.68;0.50;;;;;;;-145.69;52.27;70509.03;5072941;28;20665;-75
2022/09/12 10:56:01;;;;;;;1.63;0.60;;;;;;;-145.69;54.41;70499.09;5073130;28;20253;-76
2022/09/12 10:58:55;;;;;;;0.50;0.50;;;;;;;-145.69;54.94;70483.19;5073562;28;20203;-76
2022/09/12 11:01:34;;;;;;;0.95;0.50;;;;;;;-145.69;58.98;70471.25;5072639;28;20728;-76
2022/09/12 11:04:17;;;;;;;0.93;0.50;;;;;;;-145.69;53.95;70467.28;5072480;28;20201;-75
2022/09/12 11:06:51;;;;;;;0.80;0.60;;;;;;;-145.69;56.88;70443.41;5072865;28;20195;-75
2022/09/12 11:09:24;;;;;;;0.63;0.50;;;;;;;-145.69;49.76;70467.28;5072806;28;20649;-76
2022/09/12 11:12:08;;;;;;;0.50;0.45;;;;;;;-145.69;52.06;70451.34;5071171;28;20679;-76
2022/09/12 11:14:51;;;;;;;3.05;0.60;;;;;;;-145.69;56.02;70439.41;5052786;28;20621;-75
2022/09/12 11:17:33;;;;;;;1.77;0.57;;;;;;;-145.69;44.35;70455.34;5052841;28;20200;-77
2022/09/12 11:20:26;;;;;;;0.40;0.40;;;;;;;-145.69;43.93;70449.38;5052585;28;20485;-76
2022/09/12 11:23:25;;;;;;;0.70;0.50;;;;;;;-145.69;46.61;70443.41;5053069;28;20412;-75